KSDF/SDF METAR and TAF weather

Enter ICAO airport designator
Station Type Date Time Source
KSDF METAR 2023/01/29 18:56 UTC NOAA

KSDF 291856Z 22009KT 7SM OVC007 08/07 A3012 RMK AO2 SLP200 T00830072


Station Type Date Time Source
KSDF Decoded METAR 2023/01/29 18:56 UTC NOAA

STANDIFORD FIELD, KY, United States (KSDF) 38-11N 085-44W 146M
Jan 29, 2023 - 01:56 PM EST / 2023.01.29 1856 UTC
Wind: from the SW (220 degrees) at 10 MPH (9 KT):0
Visibility: 7 mile(s):0
Sky conditions: overcast
Temperature: 46.9 F (8.3 C)
Dew Point: 45.0 F (7.2 C)
Relative Humidity: 92%
Pressure (altimeter): 30.12 in. Hg (1019 hPa)
ob: KSDF 291856Z 22009KT 7SM OVC007 08/07 A3012 RMK AO2 SLP200 T00830072
cycle: 19

Station Type Date Time Source
KSDF TAF 2023/01/29 18:30 UTC NOAA

TAF KSDF 291727Z 2918/3024 23008KT 5SM -DZ BR OVC007
FM292100 33007KT 5SM BR OVC009
FM300400 34006KT 3SM BR VCSH OVC007
FM301000 33008KT 2SM -SHRA BR OVC006
FM301600 33008KT P6SM VCSH OVC015

Example: see airport list